Time;durP1;ratioP1;P1;durP2;ratioP2;P2;SDS_P1;SDS_P2;PMS_P1;PMS_P2;Temp;Humidity;BMP_temperature;BMP_pressure;BME280_temperature;BME280_humidity;BME280_pressure;Samples;Min_cycle;Max_cycle;Signal;HPM_P1;HPM_P2
2023/01/03 00:02:24;;;;;;;;;13.00;12.67;;;;;;;;5104427;27;8845;-67
2023/01/03 00:04:49;;;;;;;;;22.33;14.33;;;;;;;;5093590;28;8873;-68
2023/01/03 00:07:32;;;;;;;;;13.00;11.33;;;;;;;;5105752;27;8821;-68
2023/01/03 00:09:57;;;;;;;;;17.75;16.00;;;;;;;;5114373;28;8797;-67
2023/01/03 00:12:22;;;;;;;;;17.00;14.67;;;;;;;;5111345;27;8816;-68
2023/01/03 00:14:48;;;;;;;;;8.67;8.67;;;;;;;;5096981;27;8829;-67
2023/01/03 00:17:13;;;;;;;;;15.00;12.00;;;;;;;;5102120;28;8785;-67
2023/01/03 00:19:40;;;;;;;;;18.33;11.67;;;;;;;;5106661;27;8801;-67
2023/01/03 00:22:05;;;;;;;;;15.50;15.50;;;;;;;;5099349;28;8782;-67
2023/01/03 00:24:31;;;;;;;;;17.00;16.00;;;;;;;;5094403;27;8801;-68
2023/01/03 00:26:56;;;;;;;;;19.33;17.00;;;;;;;;5093240;28;8795;-67
2023/01/03 00:29:21;;;;;;;;;19.00;14.67;;;;;;;;5108767;27;8846;-67
2023/01/03 00:31:46;;;;;;;;;16.33;13.33;;;;;;;;5105650;27;8847;-67
2023/01/03 00:34:12;;;;;;;;;18.00;12.67;;;;;;;;5111802;27;8829;-67
2023/01/03 00:36:37;;;;;;;;;13.00;12.67;;;;;;;;5113938;28;8853;-67
2023/01/03 00:39:03;;;;;;;;;19.33;16.00;;;;;;;;5113761;28;8804;-68
2023/01/03 00:41:29;;;;;;;;;16.50;16.00;;;;;;;;5113621;28;8799;-67
2023/01/03 00:43:54;;;;;;;;;20.00;14.33;;;;;;;;5107192;27;9398;-67
2023/01/03 00:46:19;;;;;;;;;17.00;16.00;;;;;;;;5093545;28;9474;-67
2023/01/03 00:48:45;;;;;;;;;12.00;8.33;;;;;;;;5093841;27;8840;-67
2023/01/03 00:51:12;;;;;;;;;14.67;14.67;;;;;;;;5095233;28;8818;-67
2023/01/03 00:53:38;;;;;;;;;19.50;19.50;;;;;;;;5093154;28;8751;-67
2023/01/03 00:56:04;;;;;;;;;19.67;15.33;;;;;;;;5093043;28;8886;-67
2023/01/03 00:58:30;;;;;;;;;22.00;20.25;;;;;;;;5093151;28;8779;-67
2023/01/03 01:00:55;;;;;;;;;21.67;17.67;;;;;;;;5092832;28;9600;-67
2023/01/03 01:03:20;;;;;;;;;23.00;16.33;;;;;;;;5101501;27;8785;-67
2023/01/03 01:05:45;;;;;;;;;15.33;15.33;;;;;;;;5113694;28;8804;-67
2023/01/03 01:08:10;;;;;;;;;22.00;16.33;;;;;;;;5108984;27;9545;-67
2023/01/03 01:10:40;;;;;;;;;17.33;16.00;;;;;;;;5103996;28;8861;-67
2023/01/03 01:13:05;;;;;;;;;18.00;12.75;;;;;;;;5092645;28;8771;-67
2023/01/03 01:15:32;;;;;;;;;19.67;17.33;;;;;;;;5105884;27;8796;-67
2023/01/03 01:17:57;;;;;;;;;17.75;17.75;;;;;;;;5112504;27;8788;-67
2023/01/03 01:20:23;;;;;;;;;18.33;17.67;;;;;;;;5113123;28;9410;-67
2023/01/03 01:22:48;;;;;;;;;18.00;14.67;;;;;;;;5106675;27;8818;-67
2023/01/03 01:25:13;;;;;;;;;20.00;16.67;;;;;;;;5092635;28;8809;-67
2023/01/03 01:27:38;;;;;;;;;17.33;15.00;;;;;;;;5092495;28;8806;-67
2023/01/03 01:30:03;;;;;;;;;17.33;17.00;;;;;;;;5091512;28;8877;-67
2023/01/03 01:32:29;;;;;;;;;15.33;13.33;;;;;;;;5092584;28;8775;-67
2023/01/03 01:34:54;;;;;;;;;16.00;14.33;;;;;;;;5094013;27;8790;-67
2023/01/03 01:37:19;;;;;;;;;13.33;11.33;;;;;;;;5092488;28;8791;-67
2023/01/03 01:39:45;;;;;;;;;17.67;15.00;;;;;;;;5092443;28;9578;-67
2023/01/03 01:45:00;;;;;;;;;18.50;15.25;;;;;;;;5092514;28;8783;-69
2023/01/03 01:47:45;;;;;;;;;17.75;14.50;;;;;;;;5092333;28;8774;-68
2023/01/03 01:50:10;;;;;;;;;12.50;10.50;;;;;;;;5084336;28;8803;-69
2023/01/03 01:52:37;;;;;;;;;11.33;10.67;;;;;;;;5100740;27;8831;-69
2023/01/03 01:55:04;;;;;;;;;16.75;10.75;;;;;;;;5094427;27;8787;-69
2023/01/03 01:57:30;;;;;;;;;13.75;12.25;;;;;;;;5092020;28;8763;-69
2023/01/03 01:59:55;;;;;;;;;15.33;12.67;;;;;;;;5092281;28;8889;-69
2023/01/03 02:02:21;;;;;;;;;11.67;11.67;;;;;;;;5091429;28;8883;-69
2023/01/03 02:04:49;;;;;;;;;18.00;13.75;;;;;;;;5092206;27;8811;-69
2023/01/03 02:07:16;;;;;;;;;13.00;12.25;;;;;;;;5092969;27;8774;-69
2023/01/03 02:09:41;;;;;;;;;13.50;12.00;;;;;;;;5111977;27;8789;-69
2023/01/03 02:15:15;;;;;;;;;14.25;11.50;;;;;;;;5112432;28;8757;-69
2023/01/03 02:17:40;;;;;;;;;17.00;14.25;;;;;;;;5112311;28;8787;-69
2023/01/03 02:20:18;;;;;;;;;13.67;10.67;;;;;;;;5108636;27;8808;-69
2023/01/03 02:23:11;;;;;;;;;9.75;9.50;;;;;;;;5097309;27;8830;-69
2023/01/03 02:26:02;;;;;;;;;11.50;10.75;;;;;;;;5091738;28;8763;-69
2023/01/03 02:28:37;;;;;;;;;14.00;11.00;;;;;;;;5082307;28;8814;-69
2023/01/03 02:31:07;;;;;;;;;14.25;11.00;;;;;;;;5091421;27;8892;-69
2023/01/03 02:33:44;;;;;;;;;14.75;10.50;;;;;;;;5091718;28;8771;-70
2023/01/03 02:36:12;;;;;;;;;9.25;5.75;;;;;;;;5101225;28;8781;-69
2023/01/03 02:38:37;;;;;;;;;9.75;9.50;;;;;;;;5112026;28;8787;-69
2023/01/03 02:41:11;;;;;;;;;11.67;10.33;;;;;;;;5111858;27;8784;-69
2023/01/03 02:43:39;;;;;;;;;14.50;11.25;;;;;;;;5094409;27;8829;-71
2023/01/03 02:46:04;;;;;;;;;12.75;11.50;;;;;;;;5091401;28;8771;-71
2023/01/03 02:48:51;;;;;;;;;10.00;10.00;;;;;;;;5091746;28;9568;-70
2023/01/03 02:51:20;;;;;;;;;10.50;10.50;;;;;;;;5091092;28;8783;-70
2023/01/03 02:53:46;;;;;;;;;12.25;10.00;;;;;;;;5094265;27;8803;-69
2023/01/03 02:56:15;;;;;;;;;15.00;12.50;;;;;;;;5091480;28;8889;-69
2023/01/03 02:58:42;;;;;;;;;11.00;11.00;;;;;;;;5090938;27;8840;-69
2023/01/03 03:01:09;;;;;;;;;17.25;13.50;;;;;;;;5091223;28;8771;-69
2023/01/03 03:03:35;;;;;;;;;13.50;10.25;;;;;;;;5091285;28;8864;-69
2023/01/03 03:06:07;;;;;;;;;17.25;11.75;;;;;;;;5091333;28;8775;-69
2023/01/03 03:08:32;;;;;;;;;19.25;15.50;;;;;;;;5094942;27;9368;-69
2023/01/03 03:13:47;;;;;;;;;14.25;10.50;;;;;;;;5090689;28;8794;-69
2023/01/03 03:25:18;;;;;;;;;15.75;12.75;;;;;;;;5050290;28;9568;-69
2023/01/03 03:30:30;;;;;;;;;15.75;12.50;;;;;;;;5068357;28;9589;-68
2023/01/03 03:33:00;;;;;;;;;15.00;11.75;;;;;;;;5068246;28;8799;-69
2023/01/03 03:35:26;;;;;;;;;16.75;12.25;;;;;;;;5048391;28;8872;-68
2023/01/03 03:37:54;;;;;;;;;14.67;13.33;;;;;;;;5055142;28;8789;-68
2023/01/03 03:46:09;;;;;;;;;13.00;11.00;;;;;;;;5068268;28;8789;-67
2023/01/03 03:51:28;;;;;;;;;15.25;11.50;;;;;;;;5047834;28;45520;-67
2023/01/03 03:53:54;;;;;;;;;15.25;13.75;;;;;;;;5034747;28;45670;-67
2023/01/03 03:56:23;;;;;;;;;15.33;13.33;;;;;;;;5061380;27;45439;-67
2023/01/03 03:58:52;;;;;;;;;14.25;14.25;;;;;;;;5079496;28;45435;-67
2023/01/03 04:01:19;;;;;;;;;17.67;15.33;;;;;;;;5079871;28;45429;-66
2023/01/03 04:03:46;;;;;;;;;15.00;10.67;;;;;;;;5079411;28;46672;-67
2023/01/03 04:06:16;;;;;;;;;18.67;16.00;;;;;;;;5064585;27;45330;-66
2023/01/03 04:08:41;;;;;;;;;20.00;16.67;;;;;;;;5043094;28;45435;-66
2023/01/03 04:11:07;;;;;;;;;15.00;15.00;;;;;;;;5059452;28;45358;-66
2023/01/03 04:13:33;;;;;;;;;16.00;14.67;;;;;;;;5059005;28;46968;-66
2023/01/03 04:15:58;;;;;;;;;14.67;12.67;;;;;;;;5067114;27;45824;-66
2023/01/03 04:18:23;;;;;;;;;19.33;16.00;;;;;;;;5079638;28;45184;-66
2023/01/03 04:20:48;;;;;;;;;15.00;12.00;;;;;;;;5079570;27;45202;-66
2023/01/03 04:23:13;;;;;;;;;21.33;12.67;;;;;;;;5068370;27;46605;-66
2023/01/03 04:25:38;;;;;;;;;14.67;14.00;;;;;;;;5059140;28;45210;-66
2023/01/03 04:28:04;;;;;;;;;15.67;15.67;;;;;;;;5059342;28;45300;-66
2023/01/03 04:30:29;;;;;;;;;22.00;18.67;;;;;;;;5040860;28;45368;-66
2023/01/03 04:32:55;;;;;;;;;22.67;16.33;;;;;;;;5067639;27;45634;-66
2023/01/03 04:35:20;;;;;;;;;15.33;15.00;;;;;;;;5079176;28;45307;-66
2023/01/03 04:37:45;;;;;;;;;21.33;17.00;;;;;;;;5078554;27;46733;-66
2023/01/03 04:40:11;;;;;;;;;20.00;16.00;;;;;;;;5079290;28;45167;-66
2023/01/03 04:45:19;;;;;;;;;24.00;18.00;;;;;;;;5058676;28;45254;-66
2023/01/03 04:47:45;;;;;;;;;21.00;18.00;;;;;;;;5070995;27;45439;-66
2023/01/03 04:50:10;;;;;;;;;25.33;22.33;;;;;;;;5079099;28;45389;-66
2023/01/03 04:52:35;;;;;;;;;28.00;22.33;;;;;;;;5070053;27;46779;-66
2023/01/03 04:55:00;;;;;;;;;28.33;19.67;;;;;;;;5058497;28;45344;-66
2023/01/03 04:57:25;;;;;;;;;24.00;21.33;;;;;;;;5064799;27;45349;-66
2023/01/03 04:59:51;;;;;;;;;20.00;20.00;;;;;;;;5078807;28;45245;-66
2023/01/03 05:02:16;;;;;;;;;29.33;26.67;;;;;;;;5078618;28;46347;-66
2023/01/03 05:04:41;;;;;;;;;34.33;23.67;;;;;;;;5078505;28;45308;-66
2023/01/03 05:07:06;;;;;;;;;20.67;19.00;;;;;;;;5064521;27;45372;-66
2023/01/03 05:09:31;;;;;;;;;25.33;23.00;;;;;;;;5059181;27;45390;-66
2023/01/03 05:11:57;;;;;;;;;23.00;21.33;;;;;;;;5058130;28;46219;-66
2023/01/03 05:14:22;;;;;;;;;31.00;23.67;;;;;;;;5058274;28;45314;-66
2023/01/03 05:16:47;;;;;;;;;32.00;29.00;;;;;;;;5057921;28;45352;-66
2023/01/03 05:19:12;;;;;;;;;30.33;30.33;;;;;;;;5058364;28;45402;-66
2023/01/03 05:27:05;;;;;;;;;32.00;26.67;;;;;;;;5058710;27;45265;-66
2023/01/03 05:29:33;;;;;;;;;26.67;23.33;;;;;;;;5073552;27;45484;-66
2023/01/03 05:31:58;;;;;;;;;33.00;23.00;;;;;;;;5077756;28;45478;-66
2023/01/03 05:34:23;;;;;;;;;30.33;29.33;;;;;;;;5078164;28;45470;-66
2023/01/03 05:36:49;;;;;;;;;29.67;26.67;;;;;;;;5078361;28;45335;-66
2023/01/03 05:39:14;;;;;;;;;32.00;26.67;;;;;;;;5078285;27;45357;-66
2023/01/03 05:44:24;;;;;;;;;31.00;28.00;;;;;;;;5070717;27;45423;-66
2023/01/03 05:46:49;;;;;;;;;36.33;30.33;;;;;;;;5075223;27;45447;-67
2023/01/03 05:49:14;;;;;;;;;34.67;31.00;;;;;;;;5057803;28;45359;-67
2023/01/03 05:51:39;;;;;;;;;28.00;28.00;;;;;;;;5056806;28;45482;-67
2023/01/03 05:54:05;;;;;;;;;25.67;23.33;;;;;;;;5057412;27;45364;-67
2023/01/03 05:56:31;;;;;;;;;31.33;26.67;;;;;;;;5057739;28;45728;-67
2023/01/03 05:58:56;;;;;;;;;32.67;30.00;;;;;;;;5057622;27;45309;-67
2023/01/03 06:01:21;;;;;;;;;29.00;27.33;;;;;;;;5066018;27;45538;-67
2023/01/03 06:03:47;;;;;;;;;35.33;28.00;;;;;;;;5059623;28;45410;-67
2023/01/03 06:06:14;;;;;;;;;29.67;27.00;;;;;;;;5061639;28;46260;-67
2023/01/03 06:08:39;;;;;;;;;26.67;26.67;;;;;;;;5065320;27;45235;-68
2023/01/03 06:11:05;;;;;;;;;37.67;32.33;;;;;;;;5066269;27;46290;-70
2023/01/03 06:13:30;;;;;;;;;32.33;29.33;;;;;;;;5057134;28;45557;-67
2023/01/03 06:18:44;;;;;;;;;25.33;21.33;;;;;;;;5074212;27;45476;-67
2023/01/03 06:21:09;;;;;;;;;24.00;21.67;;;;;;;;5077137;28;46226;-67
2023/01/03 06:23:35;;;;;;;;;36.67;24.67;;;;;;;;5066043;27;45321;-67
2023/01/03 06:26:01;;;;;;;;;30.67;27.67;;;;;;;;5062995;27;45472;-67
2023/01/03 06:28:27;;;;;;;;;44.00;38.33;;;;;;;;5077570;28;46287;-67
2023/01/03 06:30:52;;;;;;;;;32.00;25.00;;;;;;;;5076024;27;45979;-67
2023/01/03 06:33:17;;;;;;;;;30.67;26.67;;;;;;;;5064521;27;45545;-66
2023/01/03 06:35:42;;;;;;;;;28.00;24.33;;;;;;;;5076357;27;45807;-65
2023/01/03 06:38:08;;;;;;;;;36.33;27.00;;;;;;;;5077247;28;45443;-66
2023/01/03 06:40:33;;;;;;;;;26.67;23.67;;;;;;;;5076978;27;47138;-66
2023/01/03 06:42:59;;;;;;;;;27.67;24.67;;;;;;;;5065501;27;45262;-66
2023/01/03 06:53:37;;;;;;;;;26.67;19.67;;;;;;;;5075281;28;45535;-67
2023/01/03 06:56:03;;;;;;;;;24.00;21.67;;;;;;;;5068604;27;45427;-66
2023/01/03 06:58:28;;;;;;;;;24.00;20.33;;;;;;;;5071105;27;45422;-67
2023/01/03 07:00:54;;;;;;;;;23.00;19.00;;;;;;;;5076993;28;46404;-67
2023/01/03 07:03:20;;;;;;;;;26.67;22.00;;;;;;;;5076697;27;45534;-67
2023/01/03 07:05:45;;;;;;;;;22.33;17.00;;;;;;;;5057672;28;45368;-68
2023/01/03 07:08:10;;;;;;;;;20.67;17.67;;;;;;;;5065015;27;45362;-68
2023/01/03 07:10:36;;;;;;;;;19.33;17.00;;;;;;;;5061571;27;46532;-67
2023/01/03 07:15:45;;;;;;;;;23.33;16.33;;;;;;;;5056524;27;45239;-67
2023/01/03 07:18:10;;;;;;;;;16.67;16.00;;;;;;;;5078908;27;45502;-67
2023/01/03 07:20:39;;;;;;;;;20.33;16.00;;;;;;;;5061466;28;45418;-67
2023/01/03 07:23:04;;;;;;;;;15.33;12.67;;;;;;;;5067334;27;45349;-66
2023/01/03 07:25:29;;;;;;;;;11.00;9.33;;;;;;;;5076814;28;45313;-65
2023/01/03 07:27:55;;;;;;;;;14.33;11.67;;;;;;;;5072442;27;45667;-66
2023/01/03 07:30:20;;;;;;;;;14.33;14.33;;;;;;;;5059132;27;46458;-65
2023/01/03 07:32:46;;;;;;;;;22.33;13.33;;;;;;;;5069654;27;45674;-65
2023/01/03 07:35:11;;;;;;;;;16.00;13.00;;;;;;;;5077549;27;45496;-66
2023/01/03 07:37:36;;;;;;;;;15.33;10.67;;;;;;;;5060226;27;45994;-67
2023/01/03 07:40:01;;;;;;;;;14.33;10.67;;;;;;;;5059753;28;46223;-66
2023/01/03 07:45:10;;;;;;;;;22.33;20.33;;;;;;;;5066909;27;45529;-65
2023/01/03 07:47:35;;;;;;;;;9.00;8.67;;;;;;;;5079973;27;45382;-66
2023/01/03 07:50:01;;;;;;;;;16.00;12.00;;;;;;;;5079634;27;45527;-66
2023/01/03 07:52:26;;;;;;;;;11.00;10.00;;;;;;;;5078952;28;45575;-66
2023/01/03 07:54:51;;;;;;;;;15.00;11.33;;;;;;;;5079914;28;45379;-66
2023/01/03 07:57:17;;;;;;;;;26.33;24.33;;;;;;;;5079782;27;45443;-66
2023/01/03 07:59:42;;;;;;;;;32.33;25.67;;;;;;;;5079708;27;46723;-66
2023/01/03 08:02:07;;;;;;;;;23.67;22.00;;;;;;;;5079399;28;45415;-66
2023/01/03 08:04:32;;;;;;;;;30.00;26.67;;;;;;;;5079615;27;45384;-66
2023/01/03 08:06:58;;;;;;;;;16.00;13.33;;;;;;;;5079690;27;45364;-66
2023/01/03 08:14:51;;;;;;;;;9.67;9.67;;;;;;;;5079461;28;45395;-66
2023/01/03 08:17:16;;;;;;;;;13.00;9.00;;;;;;;;5079724;28;45340;-66
2023/01/03 08:19:41;;;;;;;;;10.00;9.00;;;;;;;;5060934;28;46389;-66
2023/01/03 08:22:06;;;;;;;;;14.67;8.33;;;;;;;;5079224;28;45414;-66
2023/01/03 08:24:32;;;;;;;;;10.67;9.33;;;;;;;;5079225;28;45434;-66
2023/01/03 08:26:57;;;;;;;;;21.33;13.67;;;;;;;;5079651;28;45489;-66
2023/01/03 08:29:22;;;;;;;;;15.67;11.33;;;;;;;;5078758;28;45714;-66
2023/01/03 08:31:51;;;;;;;;;10.75;9.00;;;;;;;;5078974;28;45399;-67
2023/01/03 08:34:17;;;;;;;;;11.67;9.67;;;;;;;;5079163;28;45318;-66
2023/01/03 08:36:45;;;;;;;;;17.33;14.33;;;;;;;;5079342;28;45499;-66
2023/01/03 08:39:13;;;;;;;;;11.33;10.33;;;;;;;;5077730;28;45451;-66
2023/01/03 08:41:40;;;;;;;;;13.67;11.67;;;;;;;;5078904;27;45320;-66
2023/01/03 08:44:07;;;;;;;;;18.67;14.33;;;;;;;;5078957;28;45448;-66
2023/01/03 08:46:33;;;;;;;;;13.00;11.33;;;;;;;;5079242;28;45320;-66
2023/01/03 08:48:58;;;;;;;;;11.33;11.33;;;;;;;;5078726;28;46020;-66
2023/01/03 08:51:25;;;;;;;;;12.00;10.67;;;;;;;;5078654;28;45457;-67
2023/01/03 08:53:50;;;;;;;;;10.00;9.67;;;;;;;;5079070;27;45276;-65
2023/01/03 08:56:17;;;;;;;;;9.00;7.33;;;;;;;;5078980;28;45414;-65
2023/01/03 08:58:42;;;;;;;;;5.75;5.75;;;;;;;;5078771;28;45586;-65
2023/01/03 09:01:10;;;;;;;;;12.00;12.00;;;;;;;;5078683;28;45411;-65
2023/01/03 09:03:35;;;;;;;;;11.00;10.00;;;;;;;;5078481;28;45219;-65
2023/01/03 09:06:01;;;;;;;;;9.33;7.33;;;;;;;;5079026;28;45309;-65
2023/01/03 09:08:28;;;;;;;;;12.33;8.33;;;;;;;;5078568;27;46133;-65
2023/01/03 09:10:53;;;;;;;;;8.00;6.00;;;;;;;;5078422;27;45233;-65
2023/01/03 09:13:19;;;;;;;;;8.67;8.33;;;;;;;;5078979;27;45631;-65
2023/01/03 09:15:44;;;;;;;;;9.25;7.00;;;;;;;;5078746;28;45357;-65
2023/01/03 09:18:09;;;;;;;;;8.67;8.00;;;;;;;;5078331;28;46112;-65
2023/01/03 09:20:34;;;;;;;;;6.50;6.50;;;;;;;;5078414;28;45512;-65
2023/01/03 09:23:00;;;;;;;;;10.00;6.75;;;;;;;;5078624;28;45395;-66
2023/01/03 09:25:25;;;;;;;;;9.00;7.00;;;;;;;;5078771;28;45377;-65
2023/01/03 09:27:50;;;;;;;;;11.50;9.25;;;;;;;;5078193;27;45503;-65
2023/01/03 09:30:15;;;;;;;;;7.00;6.00;;;;;;;;5078085;28;45638;-65
2023/01/03 09:32:41;;;;;;;;;11.25;6.75;;;;;;;;5078211;28;45429;-65
2023/01/03 09:35:06;;;;;;;;;5.75;5.00;;;;;;;;5078355;28;45531;-65
2023/01/03 09:37:31;;;;;;;;;9.50;9.50;;;;;;;;5078052;28;46489;-65
2023/01/03 09:39:57;;;;;;;;;5.75;5.00;;;;;;;;5078010;28;45428;-68
2023/01/03 09:45:12;;;;;;;;;5.75;5.75;;;;;;;;5078518;27;45344;-68
2023/01/03 09:47:38;;;;;;;;;7.50;4.50;;;;;;;;5077914;28;45261;-65
2023/01/03 09:50:05;;;;;;;;;5.75;4.50;;;;;;;;5077762;28;45455;-65
2023/01/03 10:03:50;;;;;;;;;10.25;8.50;;;;;;;;5077853;28;45509;-68
2023/01/03 10:06:18;;;;;;;;;8.50;5.25;;;;;;;;5077931;28;45379;-68
2023/01/03 10:08:43;;;;;;;;;8.00;6.00;;;;;;;;5077547;27;46383;-65
2023/01/03 10:11:13;;;;;;;;;27.67;25.00;;;;;;;;5077685;28;45470;-66
2023/01/03 10:13:56;;;;;;;;;10.00;10.00;;;;;;;;5077715;27;45485;-66
2023/01/03 10:16:21;;;;;;;;;8.00;7.00;;;;;;;;5077810;27;45375;-66
2023/01/03 10:18:47;;;;;;;;;10.75;6.00;;;;;;;;5077459;28;46360;-67
2023/01/03 10:21:12;;;;;;;;;6.00;6.00;;;;;;;;5077569;28;45286;-66
2023/01/03 10:23:37;;;;;;;;;7.00;6.00;;;;;;;;5077610;28;45605;-66
2023/01/03 10:26:08;;;;;;;;;6.50;6.50;;;;;;;;5076948;28;45543;-67
2023/01/03 10:28:36;;;;;;;;;6.25;6.25;;;;;;;;5076909;28;46500;-67
2023/01/03 10:31:18;;;;;;;;;9.00;9.00;;;;;;;;5077338;28;45364;-67
2023/01/03 10:33:44;;;;;;;;;7.50;6.50;;;;;;;;5077344;28;45341;-66
2023/01/03 10:36:10;;;;;;;;;8.50;6.75;;;;;;;;5077312;28;45394;-67
2023/01/03 10:38:36;;;;;;;;;6.00;5.25;;;;;;;;5077091;28;45423;-67
2023/01/03 10:41:02;;;;;;;;;9.25;7.25;;;;;;;;5077235;28;45403;-67
2023/01/03 10:43:30;;;;;;;;;7.00;5.25;;;;;;;;5077300;28;45233;-67
2023/01/03 10:46:01;;;;;;;;;7.25;5.00;;;;;;;;5077529;28;45345;-67
2023/01/03 10:48:39;;;;;;;;;9.33;8.00;;;;;;;;5076820;28;46856;-66
2023/01/03 10:51:20;;;;;;;;;7.50;6.50;;;;;;;;5076542;28;45431;-67
2023/01/03 10:53:45;;;;;;;;;6.00;3.00;;;;;;;;5076943;28;45558;-67
2023/01/03 10:56:13;;;;;;;;;9.00;6.00;;;;;;;;5059276;28;45343;-67
2023/01/03 10:58:38;;;;;;;;;5.75;4.50;;;;;;;;5076805;27;46396;-67
2023/01/03 11:01:30;;;;;;;;;4.50;3.75;;;;;;;;5076584;28;45396;-67
2023/01/03 11:04:27;;;;;;;;;6.25;4.50;;;;;;;;5075571;28;45270;-67
2023/01/03 11:06:55;;;;;;;;;6.75;5.00;;;;;;;;4998336;28;45294;-67
2023/01/03 11:09:21;;;;;;;;;8.75;4.25;;;;;;;;4997730;28;46187;-67
2023/01/03 11:11:51;;;;;;;;;12.00;9.00;;;;;;;;4997932;28;45467;-66
2023/01/03 11:14:24;;;;;;;;;9.00;7.00;;;;;;;;4997189;28;45836;-67
2023/01/03 11:16:54;;;;;;;;;3.75;3.75;;;;;;;;4997956;28;45512;-67
2023/01/03 11:19:19;;;;;;;;;8.25;5.00;;;;;;;;4997918;28;46152;-67
2023/01/03 11:21:47;;;;;;;;;4.00;3.50;;;;;;;;4997677;28;45484;-67
2023/01/03 11:24:15;;;;;;;;;5.75;4.25;;;;;;;;4997387;28;45477;-66
2023/01/03 11:27:03;;;;;;;;;3.50;3.50;;;;;;;;4997897;28;45638;-67
2023/01/03 11:29:37;;;;;;;;;5.50;3.75;;;;;;;;4997486;28;46365;-67
2023/01/03 11:32:23;;;;;;;;;4.25;4.25;;;;;;;;4997477;28;45436;-67
2023/01/03 11:34:51;;;;;;;;;5.75;4.00;;;;;;;;4997504;28;45446;-67
2023/01/03 11:37:31;;;;;;;;;4.00;3.75;;;;;;;;4998168;28;45461;-67
2023/01/03 11:40:23;;;;;;;;;12.25;8.50;;;;;;;;4997556;28;45502;-67
2023/01/03 11:43:17;;;;;;;;;8.50;7.50;;;;;;;;4963591;28;45458;-67
2023/01/03 11:45:58;;;;;;;;;5.00;4.75;;;;;;;;4920023;28;45568;-67
2023/01/03 11:48:28;;;;;;;;;4.75;4.75;;;;;;;;4920205;28;45250;-68
2023/01/03 11:50:58;;;;;;;;;6.25;3.50;;;;;;;;4919420;28;46528;-67
2023/01/03 11:53:42;;;;;;;;;7.75;4.75;;;;;;;;4919617;28;45481;-67
2023/01/03 11:56:13;;;;;;;;;8.50;5.00;;;;;;;;4919759;28;45457;-67
2023/01/03 11:58:51;;;;;;;;;6.00;4.75;;;;;;;;4920023;28;45330;-67
2023/01/03 12:01:34;;;;;;;;;4.50;4.50;;;;;;;;4919200;28;46193;-67
2023/01/03 12:04:23;;;;;;;;;6.50;4.75;;;;;;;;4919576;28;45302;-67
2023/01/03 12:06:51;;;;;;;;;5.50;4.00;;;;;;;;4881367;29;45429;-67
2023/01/03 12:09:16;;;;;;;;;4.00;4.00;;;;;;;;4881697;29;45514;-67
2023/01/03 12:12:00;;;;;;;;;7.00;5.00;;;;;;;;4881532;29;46420;-67
2023/01/03 12:14:32;;;;;;;;;6.50;5.00;;;;;;;;4880833;29;45346;-67
2023/01/03 12:17:11;;;;;;;;;4.00;4.00;;;;;;;;4881453;29;45512;-67
2023/01/03 12:19:41;;;;;;;;;5.00;3.00;;;;;;;;4900534;28;45485;-67
2023/01/03 12:22:15;;;;;;;;;3.00;3.00;;;;;;;;4947785;28;45484;-68
2023/01/03 12:24:52;;;;;;;;;4.75;4.75;;;;;;;;4977422;28;45283;-67
2023/01/03 12:27:24;;;;;;;;;5.25;5.00;;;;;;;;4977406;28;45348;-67
2023/01/03 12:29:55;;;;;;;;;5.00;2.75;;;;;;;;4977265;28;45538;-67
2023/01/03 12:32:24;;;;;;;;;14.75;8.50;;;;;;;;4976972;28;46777;-68
2023/01/03 12:34:52;;;;;;;;;19.67;10.00;;;;;;;;4977078;28;45476;-67
2023/01/03 12:37:22;;;;;;;;;21.33;19.00;;;;;;;;4977091;28;45459;-67
2023/01/03 12:39:56;;;;;;;;;21.00;14.67;;;;;;;;4977498;28;45380;-67
2023/01/03 12:42:21;;;;;;;;;12.25;8.50;;;;;;;;4976976;28;46643;-68
2023/01/03 12:44:48;;;;;;;;;10.50;6.00;;;;;;;;5050227;28;45702;-68
2023/01/03 12:47:28;;;;;;;;;5.25;3.00;;;;;;;;5058874;28;45319;-67
2023/01/03 12:50:01;;;;;;;;;4.75;3.50;;;;;;;;5059034;28;45322;-68
2023/01/03 12:52:27;;;;;;;;;3.75;3.00;;;;;;;;5058263;28;45516;-67
2023/01/03 12:55:13;;;;;;;;;8.75;7.00;;;;;;;;5058437;28;45188;-67
2023/01/03 12:57:38;;;;;;;;;11.50;6.00;;;;;;;;4996656;28;45346;-67
2023/01/03 13:00:19;;;;;;;;;21.33;21.00;;;;;;;;4996577;28;45429;-67
2023/01/03 13:03:04;;;;;;;;;7.00;4.00;;;;;;;;4996181;28;46624;-68
2023/01/03 13:05:59;;;;;;;;;11.00;9.33;;;;;;;;4995910;28;45440;-67
2023/01/03 13:08:30;;;;;;;;;5.00;3.50;;;;;;;;4918730;28;45467;-67
2023/01/03 13:10:59;;;;;;;;;4.00;4.00;;;;;;;;4918729;28;45489;-67
2023/01/03 13:13:24;;;;;;;;;10.25;6.25;;;;;;;;4918538;28;46100;-67
2023/01/03 13:15:49;;;;;;;;;5.00;3.50;;;;;;;;4918438;28;45419;-68
2023/01/03 13:18:16;;;;;;;;;5.00;2.00;;;;;;;;4918559;28;45390;-67
2023/01/03 13:20:41;;;;;;;;;6.00;4.00;;;;;;;;4918624;28;45401;-68
2023/01/03 13:23:12;;;;;;;;;3.50;3.00;;;;;;;;4918355;28;46354;-68
2023/01/03 13:25:39;;;;;;;;;3.75;3.00;;;;;;;;4918448;28;45430;-67
2023/01/03 13:28:10;;;;;;;;;4.00;2.25;;;;;;;;4918474;28;45396;-67
2023/01/03 13:30:37;;;;;;;;;5.00;3.00;;;;;;;;4918223;28;45802;-67
2023/01/03 13:33:02;;;;;;;;;4.50;4.50;;;;;;;;4918228;28;47542;-67
2023/01/03 13:35:29;;;;;;;;;3.50;2.75;;;;;;;;4948792;28;45308;-68
2023/01/03 13:37:58;;;;;;;;;5.75;3.50;;;;;;;;4956679;28;45363;-67
2023/01/03 13:40:35;;;;;;;;;4.00;4.00;;;;;;;;4957080;28;45515;-68
2023/01/03 13:43:01;;;;;;;;;5.00;2.00;;;;;;;;4956512;28;46523;-67
2023/01/03 13:45:27;;;;;;;;;4.00;2.75;;;;;;;;5033589;28;45448;-68
2023/01/03 13:47:53;;;;;;;;;6.50;5.00;;;;;;;;5058056;28;45423;-68
2023/01/03 13:50:23;;;;;;;;;6.75;4.00;;;;;;;;5057702;28;45411;-68
2023/01/03 13:52:54;;;;;;;;;3.00;3.00;;;;;;;;5057325;28;46850;-67
2023/01/03 13:55:34;;;;;;;;;5.50;3.00;;;;;;;;5057637;28;45447;-68
2023/01/03 13:57:59;;;;;;;;;16.00;12.67;;;;;;;;5057818;28;45403;-67
2023/01/03 14:00:25;;;;;;;;;2.00;2.00;;;;;;;;5057872;28;45400;-67
2023/01/03 14:02:50;;;;;;;;;7.25;5.00;;;;;;;;5057371;28;45484;-68
2023/01/03 14:05:30;;;;;;;;;2.00;2.00;;;;;;;;5057368;28;45346;-67
2023/01/03 14:08:11;;;;;;;;;4.75;3.00;;;;;;;;5057459;28;45474;-68
2023/01/03 14:10:37;;;;;;;;;3.00;3.00;;;;;;;;5057558;28;45428;-67
2023/01/03 14:13:04;;;;;;;;;3.50;3.00;;;;;;;;5057228;28;46638;-68
2023/01/03 14:15:31;;;;;;;;;2.00;1.00;;;;;;;;5057212;28;45322;-68
2023/01/03 14:18:00;;;;;;;;;6.50;3.00;;;;;;;;5057475;28;45263;-68
2023/01/03 14:20:27;;;;;;;;;1.25;1.25;;;;;;;;5057848;28;45358;-67
2023/01/03 14:22:53;;;;;;;;;2.75;2.75;;;;;;;;5057134;28;46619;-68
2023/01/03 14:25:35;;;;;;;;;3.00;3.00;;;;;;;;5057379;28;45358;-68
2023/01/03 14:28:03;;;;;;;;;8.50;4.00;;;;;;;;5057337;28;45453;-67
2023/01/03 14:30:30;;;;;;;;;5.50;3.00;;;;;;;;5057192;28;45406;-68
2023/01/03 14:32:55;;;;;;;;;6.50;4.75;;;;;;;;5057033;28;45961;-68
2023/01/03 14:35:30;;;;;;;;;5.00;2.50;;;;;;;;5057131;28;45482;-68
2023/01/03 14:37:55;;;;;;;;;3.00;3.00;;;;;;;;5056458;28;45388;-67
2023/01/03 14:40:20;;;;;;;;;4.75;2.00;;;;;;;;5057265;28;45508;-68
2023/01/03 14:42:46;;;;;;;;;6.50;3.25;;;;;;;;5056586;28;46240;-67
2023/01/03 14:45:15;;;;;;;;;4.50;4.25;;;;;;;;5057024;28;45408;-68
2023/01/03 14:47:41;;;;;;;;;5.00;3.25;;;;;;;;5057170;28;45411;-68
2023/01/03 14:50:11;;;;;;;;;4.00;3.00;;;;;;;;5057062;28;45467;-68
2023/01/03 14:52:39;;;;;;;;;6.00;4.25;;;;;;;;5056551;28;46574;-67
2023/01/03 14:55:07;;;;;;;;;3.25;3.00;;;;;;;;5056989;28;45301;-67
2023/01/03 14:57:35;;;;;;;;;6.00;4.00;;;;;;;;5056743;28;45531;-67
2023/01/03 15:00:01;;;;;;;;;2.00;2.00;;;;;;;;5057106;28;45317;-68
2023/01/03 15:02:29;;;;;;;;;4.50;4.50;;;;;;;;5056667;28;46185;-67
2023/01/03 15:04:56;;;;;;;;;5.00;4.50;;;;;;;;5056670;28;45731;-67
2023/01/03 15:07:27;;;;;;;;;9.00;5.00;;;;;;;;5056781;28;45469;-67
2023/01/03 15:10:06;;;;;;;;;0.00;0.00;;;;;;;;5056968;28;45515;-67
2023/01/03 15:12:34;;;;;;;;;11.33;6.00;;;;;;;;5056418;28;47942;-68
2023/01/03 15:15:11;;;;;;;;;8.00;5.00;;;;;;;;5056349;28;45345;-67
2023/01/03 15:17:36;;;;;;;;;6.50;6.50;;;;;;;;5056817;28;45444;-67
2023/01/03 15:20:05;;;;;;;;;3.25;2.25;;;;;;;;5056878;28;45504;-68
2023/01/03 15:22:34;;;;;;;;;4.25;3.75;;;;;;;;5056126;28;47295;-68
2023/01/03 15:25:04;;;;;;;;;7.50;3.75;;;;;;;;5056439;28;45412;-68
2023/01/03 15:27:31;;;;;;;;;6.00;4.00;;;;;;;;5056417;28;45492;-67
2023/01/03 15:30:07;;;;;;;;;4.25;3.00;;;;;;;;5056420;28;45492;-68
2023/01/03 15:32:43;;;;;;;;;5.50;5.00;;;;;;;;5056318;28;46236;-67
2023/01/03 15:35:17;;;;;;;;;5.00;3.50;;;;;;;;5056374;28;45480;-67
2023/01/03 15:37:42;;;;;;;;;1.50;1.50;;;;;;;;5056259;28;45317;-67
2023/01/03 15:40:08;;;;;;;;;5.00;3.25;;;;;;;;5056675;28;45352;-67
2023/01/03 15:45:27;;;;;;;;;6.00;3.00;;;;;;;;5056306;28;45496;-68
2023/01/03 15:47:55;;;;;;;;;12.00;8.00;;;;;;;;5056306;28;45392;-68
2023/01/03 15:50:20;;;;;;;;;5.00;3.00;;;;;;;;5058093;28;45409;-67
2023/01/03 15:52:46;;;;;;;;;4.75;3.25;;;;;;;;5059396;28;46000;-68
2023/01/03 15:55:13;;;;;;;;;4.00;3.50;;;;;;;;5059610;28;45242;-68
2023/01/03 15:57:39;;;;;;;;;3.75;3.00;;;;;;;;5059672;28;45341;-68